sensor_id;sensor_type;location;lat;lon;timestamp;P1;durP1;ratioP1;P2;durP2;ratioP2
71773;SDS011;59607;52.130;5.430;2023-04-28T00:00:47;3.30;;;2.50;;
71773;SDS011;59607;52.130;5.430;2023-04-28T00:03:14;3.33;;;2.30;;
71773;SDS011;59607;52.130;5.430;2023-04-28T00:05:47;7.15;;;2.50;;
71773;SDS011;59607;52.130;5.430;2023-04-28T00:08:15;3.22;;;2.72;;
71773;SDS011;59607;52.130;5.430;2023-04-28T00:10:44;4.72;;;2.47;;
71773;SDS011;59607;52.130;5.430;2023-04-28T00:13:14;3.50;;;2.65;;
71773;SDS011;59607;52.130;5.430;2023-04-28T00:15:44;2.97;;;2.60;;
71773;SDS011;59607;52.130;5.430;2023-04-28T00:18:13;3.78;;;2.53;;
71773;SDS011;59607;52.130;5.430;2023-04-28T00:20:40;4.47;;;2.60;;
71773;SDS011;59607;52.130;5.430;2023-04-28T00:23:15;3.05;;;2.30;;
71773;SDS011;59607;52.130;5.430;2023-04-28T00:25:42;10.02;;;2.70;;
71773;SDS011;59607;52.130;5.430;2023-04-28T00:28:08;3.57;;;2.10;;
71773;SDS011;59607;52.130;5.430;2023-04-28T00:30:35;4.35;;;2.45;;
71773;SDS011;59607;52.130;5.430;2023-04-28T00:33:10;3.38;;;2.33;;
71773;SDS011;59607;52.130;5.430;2023-04-28T00:35:36;2.58;;;2.38;;
71773;SDS011;59607;52.130;5.430;2023-04-28T00:38:09;4.38;;;2.08;;
71773;SDS011;59607;52.130;5.430;2023-04-28T00:40:36;3.43;;;2.30;;
71773;SDS011;59607;52.130;5.430;2023-04-28T00:43:06;2.97;;;2.22;;
71773;SDS011;59607;52.130;5.430;2023-04-28T00:45:33;4.13;;;2.35;;
71773;SDS011;59607;52.130;5.430;2023-04-28T00:48:06;3.38;;;2.28;;
71773;SDS011;59607;52.130;5.430;2023-04-28T00:50:35;5.18;;;2.55;;
71773;SDS011;59607;52.130;5.430;2023-04-28T00:53:01;2.77;;;2.30;;
71773;SDS011;59607;52.130;5.430;2023-04-28T00:55:29;4.18;;;2.60;;
71773;SDS011;59607;52.130;5.430;2023-04-28T00:57:59;2.28;;;2.08;;
71773;SDS011;59607;52.130;5.430;2023-04-28T01:00:27;2.83;;;2.17;;
71773;SDS011;59607;52.130;5.430;2023-04-28T01:02:59;3.83;;;2.47;;
71773;SDS011;59607;52.130;5.430;2023-04-28T01:05:26;6.37;;;2.17;;
71773;SDS011;59607;52.130;5.430;2023-04-28T01:08:31;4.10;;;2.50;;
71773;SDS011;59607;52.130;5.430;2023-04-28T01:11:18;4.55;;;1.98;;
71773;SDS011;59607;52.130;5.430;2023-04-28T01:13:44;3.75;;;2.35;;
71773;SDS011;59607;52.130;5.430;2023-04-28T01:16:11;3.70;;;2.45;;
71773;SDS011;59607;52.130;5.430;2023-04-28T01:18:40;2.70;;;2.20;;
71773;SDS011;59607;52.130;5.430;2023-04-28T01:21:13;3.47;;;2.20;;
71773;SDS011;59607;52.130;5.430;2023-04-28T01:23:44;3.00;;;2.47;;
71773;SDS011;59607;52.130;5.430;2023-04-28T01:26:11;4.10;;;2.20;;
71773;SDS011;59607;52.130;5.430;2023-04-28T01:28:37;7.65;;;2.20;;
71773;SDS011;59607;52.130;5.430;2023-04-28T01:31:04;4.93;;;2.33;;
71773;SDS011;59607;52.130;5.430;2023-04-28T01:33:35;4.03;;;2.50;;
71773;SDS011;59607;52.130;5.430;2023-04-28T01:36:02;4.00;;;2.47;;
71773;SDS011;59607;52.130;5.430;2023-04-28T01:38:28;4.68;;;2.50;;
71773;SDS011;59607;52.130;5.430;2023-04-28T01:41:00;2.53;;;2.15;;
71773;SDS011;59607;52.130;5.430;2023-04-28T01:43:28;4.43;;;2.27;;
71773;SDS011;59607;52.130;5.430;2023-04-28T01:45:57;3.50;;;2.42;;
71773;SDS011;59607;52.130;5.430;2023-04-28T01:48:23;4.72;;;2.65;;
71773;SDS011;59607;52.130;5.430;2023-04-28T01:50:50;3.85;;;2.33;;
71773;SDS011;59607;52.130;5.430;2023-04-28T01:53:22;7.10;;;2.55;;
71773;SDS011;59607;52.130;5.430;2023-04-28T01:55:49;2.50;;;1.97;;
71773;SDS011;59607;52.130;5.430;2023-04-28T01:58:15;5.20;;;2.10;;
71773;SDS011;59607;52.130;5.430;2023-04-28T02:00:45;4.13;;;2.35;;
71773;SDS011;59607;52.130;5.430;2023-04-28T02:03:15;4.53;;;2.10;;
71773;SDS011;59607;52.130;5.430;2023-04-28T02:05:43;5.25;;;2.13;;
71773;SDS011;59607;52.130;5.430;2023-04-28T02:08:25;3.23;;;2.20;;
71773;SDS011;59607;52.130;5.430;2023-04-28T02:10:57;4.32;;;2.42;;
71773;SDS011;59607;52.130;5.430;2023-04-28T02:13:24;4.68;;;2.38;;
71773;SDS011;59607;52.130;5.430;2023-04-28T02:15:53;4.75;;;2.53;;
71773;SDS011;59607;52.130;5.430;2023-04-28T02:18:21;4.68;;;2.55;;
71773;SDS011;59607;52.130;5.430;2023-04-28T02:20:47;4.30;;;1.73;;
71773;SDS011;59607;52.130;5.430;2023-04-28T02:23:17;4.50;;;2.20;;
71773;SDS011;59607;52.130;5.430;2023-04-28T02:25:59;2.50;;;1.90;;
71773;SDS011;59607;52.130;5.430;2023-04-28T02:28:26;3.35;;;2.10;;
71773;SDS011;59607;52.130;5.430;2023-04-28T02:31:01;2.72;;;2.05;;
71773;SDS011;59607;52.130;5.430;2023-04-28T02:33:31;4.90;;;2.30;;
71773;SDS011;59607;52.130;5.430;2023-04-28T02:35:58;4.15;;;2.08;;
71773;SDS011;59607;52.130;5.430;2023-04-28T02:38:28;4.03;;;2.22;;
71773;SDS011;59607;52.130;5.430;2023-04-28T02:40:58;4.63;;;2.05;;
71773;SDS011;59607;52.130;5.430;2023-04-28T02:43:30;5.03;;;2.20;;
71773;SDS011;59607;52.130;5.430;2023-04-28T02:45:56;3.50;;;1.97;;
71773;SDS011;59607;52.130;5.430;2023-04-28T02:48:24;3.22;;;2.08;;
71773;SDS011;59607;52.130;5.430;2023-04-28T02:50:50;2.63;;;1.67;;
71773;SDS011;59607;52.130;5.430;2023-04-28T02:53:21;5.05;;;1.90;;
71773;SDS011;59607;52.130;5.430;2023-04-28T02:55:48;4.00;;;2.30;;
71773;SDS011;59607;52.130;5.430;2023-04-28T02:58:14;3.40;;;1.90;;
71773;SDS011;59607;52.130;5.430;2023-04-28T03:00:54;4.15;;;2.45;;
71773;SDS011;59607;52.130;5.430;2023-04-28T03:03:23;5.22;;;2.33;;
71773;SDS011;59607;52.130;5.430;2023-04-28T03:05:52;3.55;;;2.13;;
71773;SDS011;59607;52.130;5.430;2023-04-28T03:08:23;3.40;;;1.90;;
71773;SDS011;59607;52.130;5.430;2023-04-28T03:10:59;2.23;;;2.03;;
71773;SDS011;59607;52.130;5.430;2023-04-28T03:13:40;2.58;;;1.70;;
71773;SDS011;59607;52.130;5.430;2023-04-28T03:16:06;7.47;;;2.13;;
71773;SDS011;59607;52.130;5.430;2023-04-28T03:18:36;2.22;;;2.03;;
71773;SDS011;59607;52.130;5.430;2023-04-28T03:21:03;3.22;;;1.70;;
71773;SDS011;59607;52.130;5.430;2023-04-28T03:23:32;4.03;;;2.20;;
71773;SDS011;59607;52.130;5.430;2023-04-28T03:26:03;2.95;;;2.25;;
71773;SDS011;59607;52.130;5.430;2023-04-28T03:28:30;2.67;;;2.22;;
71773;SDS011;59607;52.130;5.430;2023-04-28T03:30:59;3.17;;;1.75;;
71773;SDS011;59607;52.130;5.430;2023-04-28T03:33:30;2.78;;;2.20;;
71773;SDS011;59607;52.130;5.430;2023-04-28T03:36:05;3.37;;;2.30;;
71773;SDS011;59607;52.130;5.430;2023-04-28T03:38:32;2.83;;;2.53;;
71773;SDS011;59607;52.130;5.430;2023-04-28T03:40:59;3.40;;;1.95;;
71773;SDS011;59607;52.130;5.430;2023-04-28T03:43:34;4.72;;;2.70;;
71773;SDS011;59607;52.130;5.430;2023-04-28T03:46:05;3.35;;;2.15;;
71773;SDS011;59607;52.130;5.430;2023-04-28T03:48:33;2.67;;;2.20;;
71773;SDS011;59607;52.130;5.430;2023-04-28T03:50:59;4.43;;;2.10;;
71773;SDS011;59607;52.130;5.430;2023-04-28T03:53:28;3.88;;;2.42;;
71773;SDS011;59607;52.130;5.430;2023-04-28T03:56:02;10.15;;;2.47;;
71773;SDS011;59607;52.130;5.430;2023-04-28T03:58:34;4.07;;;2.70;;
71773;SDS011;59607;52.130;5.430;2023-04-28T04:01:04;3.83;;;2.60;;
71773;SDS011;59607;52.130;5.430;2023-04-28T04:03:34;2.33;;;1.80;;
71773;SDS011;59607;52.130;5.430;2023-04-28T04:06:06;3.28;;;2.30;;
71773;SDS011;59607;52.130;5.430;2023-04-28T04:08:33;4.38;;;2.50;;
71773;SDS011;59607;52.130;5.430;2023-04-28T04:11:06;3.70;;;2.25;;
71773;SDS011;59607;52.130;5.430;2023-04-28T04:13:33;4.27;;;2.33;;
71773;SDS011;59607;52.130;5.430;2023-04-28T04:16:02;3.42;;;2.40;;
71773;SDS011;59607;52.130;5.430;2023-04-28T04:18:30;2.35;;;2.10;;
71773;SDS011;59607;52.130;5.430;2023-04-28T04:20:56;4.40;;;2.90;;
71773;SDS011;59607;52.130;5.430;2023-04-28T04:23:23;2.47;;;2.15;;
71773;SDS011;59607;52.130;5.430;2023-04-28T04:25:54;2.60;;;1.87;;
71773;SDS011;59607;52.130;5.430;2023-04-28T04:28:21;3.33;;;2.42;;
71773;SDS011;59607;52.130;5.430;2023-04-28T04:30:47;3.92;;;2.22;;
71773;SDS011;59607;52.130;5.430;2023-04-28T04:33:31;4.30;;;2.58;;
71773;SDS011;59607;52.130;5.430;2023-04-28T04:36:03;3.72;;;2.38;;
71773;SDS011;59607;52.130;5.430;2023-04-28T04:38:29;3.50;;;2.63;;
71773;SDS011;59607;52.130;5.430;2023-04-28T04:41:12;4.85;;;1.95;;
71773;SDS011;59607;52.130;5.430;2023-04-28T04:43:40;2.83;;;2.30;;
71773;SDS011;59607;52.130;5.430;2023-04-28T04:46:17;3.75;;;2.63;;
71773;SDS011;59607;52.130;5.430;2023-04-28T04:48:48;4.85;;;2.70;;
71773;SDS011;59607;52.130;5.430;2023-04-28T04:51:14;3.23;;;2.30;;
71773;SDS011;59607;52.130;5.430;2023-04-28T04:53:40;2.60;;;1.98;;
71773;SDS011;59607;52.130;5.430;2023-04-28T04:56:07;4.25;;;2.88;;
71773;SDS011;59607;52.130;5.430;2023-04-28T04:58:38;3.17;;;2.45;;
71773;SDS011;59607;52.130;5.430;2023-04-28T05:01:04;5.25;;;2.30;;
71773;SDS011;59607;52.130;5.430;2023-04-28T05:03:36;4.10;;;2.63;;
71773;SDS011;59607;52.130;5.430;2023-04-28T05:06:03;4.05;;;2.70;;
71773;SDS011;59607;52.130;5.430;2023-04-28T05:08:30;4.28;;;2.88;;
71773;SDS011;59607;52.130;5.430;2023-04-28T05:11:00;5.25;;;3.00;;
71773;SDS011;59607;52.130;5.430;2023-04-28T05:13:26;6.97;;;2.80;;
71773;SDS011;59607;52.130;5.430;2023-04-28T05:15:53;4.30;;;2.40;;
71773;SDS011;59607;52.130;5.430;2023-04-28T05:18:20;4.75;;;3.42;;
71773;SDS011;59607;52.130;5.430;2023-04-28T05:20:54;5.45;;;2.80;;
71773;SDS011;59607;52.130;5.430;2023-04-28T05:23:21;4.13;;;2.72;;
71773;SDS011;59607;52.130;5.430;2023-04-28T05:25:49;8.80;;;3.35;;
71773;SDS011;59607;52.130;5.430;2023-04-28T05:28:15;6.90;;;3.00;;
71773;SDS011;59607;52.130;5.430;2023-04-28T05:30:42;6.32;;;2.88;;
71773;SDS011;59607;52.130;5.430;2023-04-28T05:33:15;4.75;;;3.00;;
71773;SDS011;59607;52.130;5.430;2023-04-28T05:35:41;5.32;;;3.17;;
71773;SDS011;59607;52.130;5.430;2023-04-28T05:38:15;4.80;;;2.92;;
71773;SDS011;59607;52.130;5.430;2023-04-28T05:40:42;5.77;;;3.40;;
71773;SDS011;59607;52.130;5.430;2023-04-28T05:43:14;5.63;;;3.38;;
71773;SDS011;59607;52.130;5.430;2023-04-28T05:45:40;7.18;;;3.55;;
71773;SDS011;59607;52.130;5.430;2023-04-28T05:48:07;8.07;;;3.05;;
71773;SDS011;59607;52.130;5.430;2023-04-28T05:50:39;5.88;;;3.33;;
71773;SDS011;59607;52.130;5.430;2023-04-28T05:53:09;4.47;;;3.70;;
71773;SDS011;59607;52.130;5.430;2023-04-28T05:55:42;6.32;;;4.47;;
71773;SDS011;59607;52.130;5.430;2023-04-28T05:58:10;5.18;;;3.45;;
71773;SDS011;59607;52.130;5.430;2023-04-28T06:00:37;6.88;;;3.80;;
71773;SDS011;59607;52.130;5.430;2023-04-28T06:03:19;7.07;;;3.72;;
71773;SDS011;59607;52.130;5.430;2023-04-28T06:05:53;4.63;;;3.63;;
71773;SDS011;59607;52.130;5.430;2023-04-28T06:08:20;7.20;;;3.95;;
71773;SDS011;59607;52.130;5.430;2023-04-28T06:10:47;4.78;;;4.28;;
71773;SDS011;59607;52.130;5.430;2023-04-28T06:13:16;7.40;;;4.38;;
71773;SDS011;59607;52.130;5.430;2023-04-28T06:15:43;5.88;;;4.43;;
71773;SDS011;59607;52.130;5.430;2023-04-28T06:18:12;4.00;;;3.60;;
71773;SDS011;59607;52.130;5.430;2023-04-28T06:20:43;6.65;;;4.53;;
71773;SDS011;59607;52.130;5.430;2023-04-28T06:23:13;5.65;;;4.32;;
71773;SDS011;59607;52.130;5.430;2023-04-28T06:25:44;6.90;;;4.22;;
71773;SDS011;59607;52.130;5.430;2023-04-28T06:28:11;5.38;;;4.38;;
71773;SDS011;59607;52.130;5.430;2023-04-28T06:30:49;5.57;;;4.43;;
71773;SDS011;59607;52.130;5.430;2023-04-28T06:33:16;5.55;;;4.53;;
71773;SDS011;59607;52.130;5.430;2023-04-28T06:35:58;7.55;;;4.60;;
71773;SDS011;59607;52.130;5.430;2023-04-28T06:38:27;5.40;;;4.90;;
71773;SDS011;59607;52.130;5.430;2023-04-28T06:40:57;9.10;;;5.38;;
71773;SDS011;59607;52.130;5.430;2023-04-28T06:43:26;6.43;;;5.20;;
71773;SDS011;59607;52.130;5.430;2023-04-28T06:45:56;6.82;;;5.80;;
71773;SDS011;59607;52.130;5.430;2023-04-28T06:48:24;7.38;;;5.30;;
71773;SDS011;59607;52.130;5.430;2023-04-28T06:50:54;7.70;;;5.38;;
71773;SDS011;59607;52.130;5.430;2023-04-28T06:53:23;7.75;;;6.00;;
71773;SDS011;59607;52.130;5.430;2023-04-28T06:55:50;6.20;;;5.70;;
71773;SDS011;59607;52.130;5.430;2023-04-28T06:58:31;12.05;;;6.18;;
71773;SDS011;59607;52.130;5.430;2023-04-28T07:00:58;12.05;;;5.72;;
71773;SDS011;59607;52.130;5.430;2023-04-28T07:03:25;7.38;;;6.07;;
71773;SDS011;59607;52.130;5.430;2023-04-28T07:05:52;7.93;;;6.25;;
71773;SDS011;59607;52.130;5.430;2023-04-28T07:08:29;6.97;;;6.27;;
71773;SDS011;59607;52.130;5.430;2023-04-28T07:10:55;10.07;;;5.93;;
71773;SDS011;59607;52.130;5.430;2023-04-28T07:13:25;7.13;;;6.43;;
71773;SDS011;59607;52.130;5.430;2023-04-28T07:15:51;8.90;;;6.45;;
71773;SDS011;59607;52.130;5.430;2023-04-28T07:18:17;8.55;;;6.40;;
71773;SDS011;59607;52.130;5.430;2023-04-28T07:20:50;9.97;;;6.53;;
71773;SDS011;59607;52.130;5.430;2023-04-28T07:23:26;8.88;;;6.53;;
71773;SDS011;59607;52.130;5.430;2023-04-28T07:25:57;7.93;;;6.68;;
71773;SDS011;59607;52.130;5.430;2023-04-28T07:28:24;7.93;;;6.50;;
71773;SDS011;59607;52.130;5.430;2023-04-28T07:30:52;8.60;;;6.72;;
71773;SDS011;59607;52.130;5.430;2023-04-28T07:33:23;7.80;;;6.80;;
71773;SDS011;59607;52.130;5.430;2023-04-28T07:35:51;12.63;;;6.97;;
71773;SDS011;59607;52.130;5.430;2023-04-28T07:38:20;8.55;;;7.72;;
71773;SDS011;59607;52.130;5.430;2023-04-28T07:41:00;8.90;;;7.18;;
71773;SDS011;59607;52.130;5.430;2023-04-28T07:43:28;9.13;;;7.53;;
71773;SDS011;59607;52.130;5.430;2023-04-28T07:45:55;8.20;;;7.30;;
71773;SDS011;59607;52.130;5.430;2023-04-28T07:48:30;8.68;;;7.32;;
71773;SDS011;59607;52.130;5.430;2023-04-28T07:50:57;9.10;;;7.60;;
71773;SDS011;59607;52.130;5.430;2023-04-28T07:53:25;8.45;;;6.95;;
71773;SDS011;59607;52.130;5.430;2023-04-28T07:55:54;8.73;;;7.82;;
71773;SDS011;59607;52.130;5.430;2023-04-28T07:58:20;9.10;;;7.90;;
71773;SDS011;59607;52.130;5.430;2023-04-28T08:00:47;7.97;;;7.28;;
71773;SDS011;59607;52.130;5.430;2023-04-28T08:03:18;8.85;;;7.88;;
71773;SDS011;59607;52.130;5.430;2023-04-28T08:05:45;9.30;;;7.13;;
71773;SDS011;59607;52.130;5.430;2023-04-28T08:08:12;9.18;;;7.55;;
71773;SDS011;59607;52.130;5.430;2023-04-28T08:10:44;10.77;;;7.20;;
71773;SDS011;59607;52.130;5.430;2023-04-28T08:13:10;8.75;;;7.35;;
71773;SDS011;59607;52.130;5.430;2023-04-28T08:15:37;12.30;;;8.07;;
71773;SDS011;59607;52.130;5.430;2023-04-28T08:18:09;11.90;;;8.73;;
71773;SDS011;59607;52.130;5.430;2023-04-28T08:20:36;9.30;;;7.72;;
71773;SDS011;59607;52.130;5.430;2023-04-28T08:23:02;10.00;;;8.00;;
71773;SDS011;59607;52.130;5.430;2023-04-28T08:25:33;11.90;;;7.70;;
71773;SDS011;59607;52.130;5.430;2023-04-28T08:27:59;11.77;;;7.63;;
71773;SDS011;59607;52.130;5.430;2023-04-28T08:30:36;8.93;;;7.93;;
71773;SDS011;59607;52.130;5.430;2023-04-28T08:33:04;12.55;;;8.25;;
71773;SDS011;59607;52.130;5.430;2023-04-28T08:35:37;10.83;;;8.43;;
71773;SDS011;59607;52.130;5.430;2023-04-28T08:38:04;11.25;;;8.85;;
71773;SDS011;59607;52.130;5.430;2023-04-28T08:40:34;9.50;;;8.07;;
71773;SDS011;59607;52.130;5.430;2023-04-28T08:43:09;11.52;;;9.25;;
71773;SDS011;59607;52.130;5.430;2023-04-28T08:45:44;11.75;;;8.90;;
71773;SDS011;59607;52.130;5.430;2023-04-28T08:48:18;11.33;;;8.70;;
71773;SDS011;59607;52.130;5.430;2023-04-28T08:50:50;10.45;;;8.38;;
71773;SDS011;59607;52.130;5.430;2023-04-28T08:53:20;10.38;;;8.70;;
71773;SDS011;59607;52.130;5.430;2023-04-28T08:55:53;9.70;;;8.70;;
71773;SDS011;59607;52.130;5.430;2023-04-28T08:58:34;10.07;;;9.05;;
71773;SDS011;59607;52.130;5.430;2023-04-28T09:01:02;13.57;;;9.63;;
71773;SDS011;59607;52.130;5.430;2023-04-28T09:03:34;9.93;;;8.93;;
71773;SDS011;59607;52.130;5.430;2023-04-28T09:06:01;11.30;;;10.10;;
71773;SDS011;59607;52.130;5.430;2023-04-28T09:08:30;11.10;;;9.27;;
71773;SDS011;59607;52.130;5.430;2023-04-28T09:11:06;10.27;;;9.23;;
71773;SDS011;59607;52.130;5.430;2023-04-28T09:13:34;11.10;;;9.90;;
71773;SDS011;59607;52.130;5.430;2023-04-28T09:16:04;11.02;;;9.18;;
71773;SDS011;59607;52.130;5.430;2023-04-28T09:18:31;12.32;;;10.27;;
71773;SDS011;59607;52.130;5.430;2023-04-28T09:21:10;11.60;;;9.23;;
71773;SDS011;59607;52.130;5.430;2023-04-28T09:23:49;13.52;;;10.70;;
71773;SDS011;59607;52.130;5.430;2023-04-28T09:26:22;12.77;;;10.00;;
71773;SDS011;59607;52.130;5.430;2023-04-28T09:28:52;11.98;;;10.75;;
71773;SDS011;59607;52.130;5.430;2023-04-28T09:31:36;11.65;;;9.77;;
71773;SDS011;59607;52.130;5.430;2023-04-28T09:34:11;11.13;;;10.10;;
71773;SDS011;59607;52.130;5.430;2023-04-28T09:36:39;12.90;;;10.20;;
71773;SDS011;59607;52.130;5.430;2023-04-28T09:39:08;12.83;;;9.80;;
71773;SDS011;59607;52.130;5.430;2023-04-28T09:41:46;12.65;;;10.73;;
71773;SDS011;59607;52.130;5.430;2023-04-28T09:44:17;11.00;;;9.90;;
71773;SDS011;59607;52.130;5.430;2023-04-28T09:46:46;11.80;;;10.57;;
71773;SDS011;59607;52.130;5.430;2023-04-28T09:49:16;10.80;;;9.68;;
71773;SDS011;59607;52.130;5.430;2023-04-28T09:51:45;11.53;;;10.33;;
71773;SDS011;59607;52.130;5.430;2023-04-28T09:54:11;11.07;;;9.98;;
71773;SDS011;59607;52.130;5.430;2023-04-28T09:56:53;13.05;;;10.85;;
71773;SDS011;59607;52.130;5.430;2023-04-28T09:59:21;11.43;;;10.20;;
71773;SDS011;59607;52.130;5.430;2023-04-28T10:01:52;12.77;;;10.02;;
71773;SDS011;59607;52.130;5.430;2023-04-28T10:04:21;10.53;;;9.53;;
71773;SDS011;59607;52.130;5.430;2023-04-28T10:06:49;10.57;;;9.65;;
71773;SDS011;59607;52.130;5.430;2023-04-28T10:09:15;13.43;;;9.52;;
71773;SDS011;59607;52.130;5.430;2023-04-28T10:11:43;9.25;;;8.45;;
71773;SDS011;59607;52.130;5.430;2023-04-28T10:14:15;9.52;;;8.63;;
71773;SDS011;59607;52.130;5.430;2023-04-28T10:16:41;9.93;;;8.97;;
71773;SDS011;59607;52.130;5.430;2023-04-28T10:19:08;9.95;;;9.02;;
71773;SDS011;59607;52.130;5.430;2023-04-28T10:21:41;8.95;;;8.25;;
71773;SDS011;59607;52.130;5.430;2023-04-28T10:24:25;8.93;;;8.05;;
71773;SDS011;59607;52.130;5.430;2023-04-28T10:27:13;7.78;;;7.18;;
71773;SDS011;59607;52.130;5.430;2023-04-28T10:29:43;8.13;;;7.33;;
71773;SDS011;59607;52.130;5.430;2023-04-28T10:32:20;7.95;;;7.30;;
71773;SDS011;59607;52.130;5.430;2023-04-28T10:40:49;7.28;;;6.70;;
71773;SDS011;59607;52.130;5.430;2023-04-28T10:43:33;7.20;;;6.50;;
71773;SDS011;59607;52.130;5.430;2023-04-28T10:46:12;7.97;;;7.38;;
71773;SDS011;59607;52.130;5.430;2023-04-28T10:56:09;7.27;;;6.77;;
71773;SDS011;59607;52.130;5.430;2023-04-28T10:58:47;7.25;;;6.68;;
71773;SDS011;59607;52.130;5.430;2023-04-28T11:03:59;7.40;;;6.80;;
71773;SDS011;59607;52.130;5.430;2023-04-28T11:06:44;7.53;;;6.93;;
71773;SDS011;59607;52.130;5.430;2023-04-28T11:14:38;5.80;;;5.38;;
71773;SDS011;59607;52.130;5.430;2023-04-28T11:17:35;6.38;;;5.88;;
71773;SDS011;59607;52.130;5.430;2023-04-28T11:20:11;6.30;;;5.88;;
71773;SDS011;59607;52.130;5.430;2023-04-28T11:22:38;6.50;;;6.00;;
71773;SDS011;59607;52.130;5.430;2023-04-28T11:25:16;7.53;;;6.85;;
71773;SDS011;59607;52.130;5.430;2023-04-28T11:27:42;7.07;;;6.57;;
71773;SDS011;59607;52.130;5.430;2023-04-28T11:30:18;7.30;;;6.63;;
71773;SDS011;59607;52.130;5.430;2023-04-28T11:32:48;8.05;;;7.45;;
71773;SDS011;59607;52.130;5.430;2023-04-28T11:35:22;7.97;;;7.27;;
71773;SDS011;59607;52.130;5.430;2023-04-28T11:38:00;7.35;;;6.75;;
71773;SDS011;59607;52.130;5.430;2023-04-28T11:40:29;8.93;;;8.02;;
71773;SDS011;59607;52.130;5.430;2023-04-28T11:42:59;7.95;;;7.25;;
71773;SDS011;59607;52.130;5.430;2023-04-28T11:45:30;11.32;;;8.00;;
71773;SDS011;59607;52.130;5.430;2023-04-28T11:48:19;8.77;;;7.97;;
71773;SDS011;59607;52.130;5.430;2023-04-28T11:50:49;8.30;;;7.28;;
71773;SDS011;59607;52.130;5.430;2023-04-28T11:53:15;8.40;;;7.47;;
71773;SDS011;59607;52.130;5.430;2023-04-28T11:55:42;8.15;;;7.35;;
71773;SDS011;59607;52.130;5.430;2023-04-28T11:58:20;8.93;;;8.13;;
71773;SDS011;59607;52.130;5.430;2023-04-28T12:03:45;7.15;;;6.45;;
71773;SDS011;59607;52.130;5.430;2023-04-28T12:06:29;6.47;;;5.72;;
71773;SDS011;59607;52.130;5.430;2023-04-28T12:08:59;6.28;;;5.68;;
71773;SDS011;59607;52.130;5.430;2023-04-28T12:11:29;5.55;;;5.05;;
71773;SDS011;59607;52.130;5.430;2023-04-28T12:14:02;5.83;;;5.07;;
71773;SDS011;59607;52.130;5.430;2023-04-28T12:16:36;6.28;;;5.68;;
71773;SDS011;59607;52.130;5.430;2023-04-28T12:19:10;5.88;;;5.13;;
71773;SDS011;59607;52.130;5.430;2023-04-28T12:21:38;6.72;;;4.57;;
71773;SDS011;59607;52.130;5.430;2023-04-28T12:24:16;5.28;;;4.80;;
71773;SDS011;59607;52.130;5.430;2023-04-28T12:27:21;5.10;;;4.70;;
71773;SDS011;59607;52.130;5.430;2023-04-28T12:29:47;6.30;;;4.78;;
71773;SDS011;59607;52.130;5.430;2023-04-28T12:32:16;4.47;;;4.07;;
71773;SDS011;59607;52.130;5.430;2023-04-28T12:34:49;7.00;;;4.35;;
71773;SDS011;59607;52.130;5.430;2023-04-28T12:37:18;4.18;;;3.58;;
71773;SDS011;59607;52.130;5.430;2023-04-28T12:39:47;4.30;;;2.97;;
71773;SDS011;59607;52.130;5.430;2023-04-28T12:42:18;4.00;;;3.67;;
71773;SDS011;59607;52.130;5.430;2023-04-28T12:44:44;5.32;;;3.53;;
71773;SDS011;59607;52.130;5.430;2023-04-28T12:47:11;3.17;;;2.60;;
71773;SDS011;59607;52.130;5.430;2023-04-28T12:49:46;3.47;;;2.22;;
71773;SDS011;59607;52.130;5.430;2023-04-28T12:52:18;4.73;;;1.97;;
71773;SDS011;59607;52.130;5.430;2023-04-28T12:54:45;9.23;;;3.50;;
71773;SDS011;59607;52.130;5.430;2023-04-28T12:57:15;5.53;;;2.28;;
71773;SDS011;59607;52.130;5.430;2023-04-28T12:59:49;4.38;;;2.40;;
71773;SDS011;59607;52.130;5.430;2023-04-28T13:02:18;1.73;;;1.33;;
71773;SDS011;59607;52.130;5.430;2023-04-28T13:04:51;3.30;;;1.40;;
71773;SDS011;59607;52.130;5.430;2023-04-28T13:07:18;2.35;;;1.63;;
71773;SDS011;59607;52.130;5.430;2023-04-28T13:09:49;1.83;;;1.15;;
71773;SDS011;59607;52.130;5.430;2023-04-28T13:12:15;3.25;;;1.52;;
71773;SDS011;59607;52.130;5.430;2023-04-28T13:14:42;1.85;;;1.55;;
71773;SDS011;59607;52.130;5.430;2023-04-28T13:17:11;1.27;;;1.13;;
71773;SDS011;59607;52.130;5.430;2023-04-28T13:19:41;3.72;;;1.40;;
71773;SDS011;59607;52.130;5.430;2023-04-28T13:22:12;1.00;;;0.90;;
71773;SDS011;59607;52.130;5.430;2023-04-28T13:24:44;1.40;;;1.30;;
71773;SDS011;59607;52.130;5.430;2023-04-28T13:27:12;1.70;;;1.60;;
71773;SDS011;59607;52.130;5.430;2023-04-28T13:29:40;1.80;;;1.70;;
71773;SDS011;59607;52.130;5.430;2023-04-28T13:32:11;2.40;;;2.20;;
71773;SDS011;59607;52.130;5.430;2023-04-28T13:34:37;2.00;;;1.80;;
71773;SDS011;59607;52.130;5.430;2023-04-28T13:37:10;2.15;;;2.00;;
71773;SDS011;59607;52.130;5.430;2023-04-28T13:39:37;2.22;;;2.08;;
71773;SDS011;59607;52.130;5.430;2023-04-28T13:42:03;2.70;;;2.50;;
71773;SDS011;59607;52.130;5.430;2023-04-28T13:44:34;2.45;;;2.25;;
71773;SDS011;59607;52.130;5.430;2023-04-28T13:47:01;2.90;;;2.70;;
71773;SDS011;59607;52.130;5.430;2023-04-28T13:49:28;2.80;;;2.60;;
71773;SDS011;59607;52.130;5.430;2023-04-28T13:51:58;2.20;;;2.10;;
71773;SDS011;59607;52.130;5.430;2023-04-28T13:54:24;2.73;;;2.53;;
71773;SDS011;59607;52.130;5.430;2023-04-28T13:56:55;3.13;;;2.92;;
71773;SDS011;59607;52.130;5.430;2023-04-28T13:59:22;2.42;;;2.22;;
71773;SDS011;59607;52.130;5.430;2023-04-28T14:01:48;2.88;;;2.67;;
71773;SDS011;59607;52.130;5.430;2023-04-28T14:04:15;2.75;;;1.50;;
71773;SDS011;59607;52.130;5.430;2023-04-28T14:06:42;1.70;;;1.60;;
71773;SDS011;59607;52.130;5.430;2023-04-28T14:09:16;1.70;;;1.60;;
71773;SDS011;59607;52.130;5.430;2023-04-28T14:11:55;1.60;;;1.50;;
71773;SDS011;59607;52.130;5.430;2023-04-28T14:14:30;1.15;;;1.05;;
71773;SDS011;59607;52.130;5.430;2023-04-28T14:16:57;3.03;;;1.85;;
71773;SDS011;59607;52.130;5.430;2023-04-28T14:19:27;3.93;;;1.70;;
71773;SDS011;59607;52.130;5.430;2023-04-28T14:21:57;1.33;;;1.10;;
71773;SDS011;59607;52.130;5.430;2023-04-28T14:24:24;1.42;;;1.30;;
71773;SDS011;59607;52.130;5.430;2023-04-28T14:26:59;1.73;;;1.10;;
71773;SDS011;59607;52.130;5.430;2023-04-28T14:29:25;1.77;;;1.50;;
71773;SDS011;59607;52.130;5.430;2023-04-28T14:32:01;1.90;;;1.80;;
71773;SDS011;59607;52.130;5.430;2023-04-28T14:34:27;1.70;;;1.55;;
71773;SDS011;59607;52.130;5.430;2023-04-28T14:36:53;2.25;;;1.70;;
71773;SDS011;59607;52.130;5.430;2023-04-28T14:39:26;1.88;;;1.67;;
71773;SDS011;59607;52.130;5.430;2023-04-28T14:41:52;2.30;;;2.10;;
71773;SDS011;59607;52.130;5.430;2023-04-28T14:44:28;2.50;;;1.97;;
71773;SDS011;59607;52.130;5.430;2023-04-28T14:46:54;6.03;;;2.78;;
71773;SDS011;59607;52.130;5.430;2023-04-28T14:49:21;2.92;;;2.63;;
71773;SDS011;59607;52.130;5.430;2023-04-28T14:52:05;3.65;;;2.95;;
71773;SDS011;59607;52.130;5.430;2023-04-28T14:54:34;4.00;;;3.30;;
71773;SDS011;59607;52.130;5.430;2023-04-28T14:57:01;4.83;;;3.97;;
71773;SDS011;59607;52.130;5.430;2023-04-28T14:59:31;5.10;;;4.60;;
71773;SDS011;59607;52.130;5.430;2023-04-28T15:01:57;6.40;;;4.60;;
71773;SDS011;59607;52.130;5.430;2023-04-28T15:04:24;5.78;;;4.35;;
71773;SDS011;59607;52.130;5.430;2023-04-28T15:06:57;4.80;;;4.28;;
71773;SDS011;59607;52.130;5.430;2023-04-28T15:09:28;6.27;;;4.97;;
71773;SDS011;59607;52.130;5.430;2023-04-28T15:11:55;5.70;;;5.15;;
71773;SDS011;59607;52.130;5.430;2023-04-28T15:14:30;8.35;;;5.10;;
71773;SDS011;59607;52.130;5.430;2023-04-28T15:16:59;6.43;;;4.82;;
71773;SDS011;59607;52.130;5.430;2023-04-28T15:19:29;5.07;;;4.53;;
71773;SDS011;59607;52.130;5.430;2023-04-28T15:21:56;7.30;;;5.00;;
71773;SDS011;59607;52.130;5.430;2023-04-28T15:24:27;6.30;;;5.03;;
71773;SDS011;59607;52.130;5.430;2023-04-28T15:26:56;6.57;;;5.78;;
71773;SDS011;59607;52.130;5.430;2023-04-28T15:29:23;10.57;;;5.70;;